/[cits3200i]/trunk/data/canoe1_NoHR.gpx


UCC Code Repository

Contents of /trunk/data/canoe1_NoHR.gpx

Parent Directory Parent Directory | Revision Log Revision Log


Revision 15 - (show annotations) (download)
Sat Sep 11 14:31:33 2010 UTC (11 years, 2 months ago) by rvvs89
File size: 40587 byte(s)
Adding sample GPX data provided by the client.
1 <?xml version="1.0" encoding="UTF-8"?>
2 <gpx version="1.1" creator="Garmin Connect"
3 xsi:schemaLocation="http://www.topografix.com/GPX/1/1 http://www.topografix.com/GPX/1/1/gpx.xsd http://www.garmin.com/xmlschemas/GpxExtensions/v3 http://www.garmin.com/xmlschemas/GpxExtensionsv3.xsd http://www.garmin.com/xmlschemas/TrackPointExtension/v1 http://www.garmin.com/xmlschemas/TrackPointExtensionv1.xsd"
4 xmlns="http://www.topografix.com/GPX/1/1"
5 xmlns:gpxtpx="http://www.garmin.com/xmlschemas/TrackPointExtension/v1"
6 xmlns:gpxx="http://www.garmin.com/xmlschemas/GpxExtensions/v3" xmlns:xsi="http://www.w3.org/2001/XMLSchema-instance">
7 <metadata>
8 <link href="connect.garmin.com">
9 <text>Garmin Connect</text>
10 </link>
11 <time>2008-11-23T21:16:14.000Z</time>
12 </metadata>
13 <trk>
14 <name>2x1500 2x1000 2x500</name>
15 <desc>Felt good after the first one and found nice rythm. Current quiet strong</desc>
16 <trkseg>
17 <trkpt lon="115.9178203" lat="-31.9325429">
18 <ele>3.02</ele>
19 <time>2008-11-23T21:16:14.000Z</time>
20 </trkpt>
21 <trkpt lon="115.9179306" lat="-31.9325543">
22 <ele>1.1</ele>
23 <time>2008-11-23T21:16:24.000Z</time>
24 </trkpt>
25 <trkpt lon="115.9179556" lat="-31.9325524">
26 <ele>0.62</ele>
27 <time>2008-11-23T21:16:25.000Z</time>
28 </trkpt>
29 <trkpt lon="115.9181491" lat="-31.9325411">
30 <ele>-0.82</ele>
31 <time>2008-11-23T21:16:30.000Z</time>
32 </trkpt>
33 <trkpt lon="115.9185249" lat="-31.9325284">
34 <ele>-1.3</ele>
35 <time>2008-11-23T21:16:38.000Z</time>
36 </trkpt>
37 <trkpt lon="115.9189838" lat="-31.9324955">
38 <ele>-2.27</ele>
39 <time>2008-11-23T21:16:48.000Z</time>
40 </trkpt>
41 <trkpt lon="115.9194733" lat="-31.9324869">
42 <ele>-1.79</ele>
43 <time>2008-11-23T21:16:59.000Z</time>
44 </trkpt>
45 <trkpt lon="115.9198256" lat="-31.93247">
46 <ele>-1.3</ele>
47 <time>2008-11-23T21:17:07.000Z</time>
48 </trkpt>
49 <trkpt lon="115.92027" lat="-31.9324389">
50 <ele>-1.3</ele>
51 <time>2008-11-23T21:17:17.000Z</time>
52 </trkpt>
53 <trkpt lon="115.9207508" lat="-31.9324031">
54 <ele>-2.27</ele>
55 <time>2008-11-23T21:17:28.000Z</time>
56 </trkpt>
57 <trkpt lon="115.9212136" lat="-31.9323601">
58 <ele>-2.27</ele>
59 <time>2008-11-23T21:17:39.000Z</time>
60 </trkpt>
61 <trkpt lon="115.9216266" lat="-31.9323266">
62 <ele>-0.82</ele>
63 <time>2008-11-23T21:17:49.000Z</time>
64 </trkpt>
65 <trkpt lon="115.922068" lat="-31.9322994">
66 <ele>-0.82</ele>
67 <time>2008-11-23T21:18:00.000Z</time>
68 </trkpt>
69 <trkpt lon="115.9224296" lat="-31.9322778">
70 <ele>-0.82</ele>
71 <time>2008-11-23T21:18:09.000Z</time>
72 </trkpt>
73 <trkpt lon="115.9229179" lat="-31.9322544">
74 <ele>-2.27</ele>
75 <time>2008-11-23T21:18:21.000Z</time>
76 </trkpt>
77 <trkpt lon="115.9233283" lat="-31.9322336">
78 <ele>-3.23</ele>
79 <time>2008-11-23T21:18:31.000Z</time>
80 </trkpt>
81 <trkpt lon="115.9237018" lat="-31.9322114">
82 <ele>-4.67</ele>
83 <time>2008-11-23T21:18:40.000Z</time>
84 </trkpt>
85 <trkpt lon="115.9241964" lat="-31.932183">
86 <ele>-7.07</ele>
87 <time>2008-11-23T21:18:52.000Z</time>
88 </trkpt>
89 <trkpt lon="115.9246472" lat="-31.9321652">
90 <ele>-9.48</ele>
91 <time>2008-11-23T21:19:03.000Z</time>
92 </trkpt>
93 <trkpt lon="115.925116" lat="-31.9321467">
94 <ele>-9.0</ele>
95 <time>2008-11-23T21:19:15.000Z</time>
96 </trkpt>
97 <trkpt lon="115.9255914" lat="-31.932124">
98 <ele>-9.0</ele>
99 <time>2008-11-23T21:19:27.000Z</time>
100 </trkpt>
101 <trkpt lon="115.9261368" lat="-31.9320972">
102 <ele>-10.92</ele>
103 <time>2008-11-23T21:19:40.000Z</time>
104 </trkpt>
105 <trkpt lon="115.9265519" lat="-31.9320758">
106 <ele>-11.88</ele>
107 <time>2008-11-23T21:19:50.000Z</time>
108 </trkpt>
109 <trkpt lon="115.92692" lat="-31.9320541">
110 <ele>-12.36</ele>
111 <time>2008-11-23T21:19:59.000Z</time>
112 </trkpt>
113 <trkpt lon="115.9272909" lat="-31.9320276">
114 <ele>-13.8</ele>
115 <time>2008-11-23T21:20:08.000Z</time>
116 </trkpt>
117 <trkpt lon="115.9276923" lat="-31.9319896">
118 <ele>-13.8</ele>
119 <time>2008-11-23T21:20:18.000Z</time>
120 </trkpt>
121 <trkpt lon="115.9280606" lat="-31.9319604">
122 <ele>-15.24</ele>
123 <time>2008-11-23T21:20:27.000Z</time>
124 </trkpt>
125 <trkpt lon="115.9285053" lat="-31.9319188">
126 <ele>-15.72</ele>
127 <time>2008-11-23T21:20:38.000Z</time>
128 </trkpt>
129 <trkpt lon="115.9289518" lat="-31.9318758">
130 <ele>-17.17</ele>
131 <time>2008-11-23T21:20:49.000Z</time>
132 </trkpt>
133 <trkpt lon="115.9294227" lat="-31.9318323">
134 <ele>-17.17</ele>
135 <time>2008-11-23T21:21:01.000Z</time>
136 </trkpt>
137 <trkpt lon="115.9298951" lat="-31.9317874">
138 <ele>-16.69</ele>
139 <time>2008-11-23T21:21:13.000Z</time>
140 </trkpt>
141 <trkpt lon="115.9302836" lat="-31.9317395">
142 <ele>-18.61</ele>
143 <time>2008-11-23T21:21:23.000Z</time>
144 </trkpt>
145 <trkpt lon="115.9305904" lat="-31.9316976">
146 <ele>-18.61</ele>
147 <time>2008-11-23T21:21:31.000Z</time>
148 </trkpt>
149 <trkpt lon="115.9309067" lat="-31.9316614">
150 <ele>-19.09</ele>
151 <time>2008-11-23T21:21:39.000Z</time>
152 </trkpt>
153 <trkpt lon="115.9312954" lat="-31.9316178">
154 <ele>-18.13</ele>
155 <time>2008-11-23T21:21:49.000Z</time>
156 </trkpt>
157 <trkpt lon="115.9317184" lat="-31.9315744">
158 <ele>-17.17</ele>
159 <time>2008-11-23T21:22:00.000Z</time>
160 </trkpt>
161 <trkpt lon="115.9321018" lat="-31.931535">
162 <ele>-15.72</ele>
163 <time>2008-11-23T21:22:10.000Z</time>
164 </trkpt>
165 <trkpt lon="115.9324821" lat="-31.9314972">
166 <ele>-14.28</ele>
167 <time>2008-11-23T21:22:20.000Z</time>
168 </trkpt>
169 <trkpt lon="115.932901" lat="-31.9314541">
170 <ele>-13.8</ele>
171 <time>2008-11-23T21:22:31.000Z</time>
172 </trkpt>
173 <trkpt lon="115.9332787" lat="-31.9314148">
174 <ele>-13.8</ele>
175 <time>2008-11-23T21:22:41.000Z</time>
176 </trkpt>
177 <trkpt lon="115.9337318" lat="-31.9313722">
178 <ele>-13.32</ele>
179 <time>2008-11-23T21:22:53.000Z</time>
180 </trkpt>
181 <trkpt lon="115.9341546" lat="-31.9313229">
182 <ele>-9.96</ele>
183 <time>2008-11-23T21:23:05.000Z</time>
184 </trkpt>
185 <trkpt lon="115.9342671" lat="-31.9313045">
186 <ele>-7.07</ele>
187 <time>2008-11-23T21:23:12.000Z</time>
188 </trkpt>
189 <trkpt lon="115.9343402" lat="-31.9312754">
190 <ele>-4.67</ele>
191 <time>2008-11-23T21:23:22.000Z</time>
192 </trkpt>
193 <trkpt lon="115.9343742" lat="-31.9312577">
194 <ele>-3.71</ele>
195 <time>2008-11-23T21:23:37.000Z</time>
196 </trkpt>
197 <trkpt lon="115.9343858" lat="-31.9312603">
198 <ele>-2.75</ele>
199 <time>2008-11-23T21:23:49.000Z</time>
200 </trkpt>
201 <trkpt lon="115.9344391" lat="-31.9312376">
202 <ele>-1.3</ele>
203 <time>2008-11-23T21:24:03.000Z</time>
204 </trkpt>
205 <trkpt lon="115.9345042" lat="-31.9312243">
206 <ele>0.62</ele>
207 <time>2008-11-23T21:24:16.000Z</time>
208 </trkpt>
209 <trkpt lon="115.9345229" lat="-31.931259">
210 <ele>1.58</ele>
211 <time>2008-11-23T21:24:27.000Z</time>
212 </trkpt>
213 <trkpt lon="115.9345147" lat="-31.9312468">
214 <ele>2.06</ele>
215 <time>2008-11-23T21:24:34.000Z</time>
216 </trkpt>
217 <trkpt lon="115.9345166" lat="-31.9311781">
218 <ele>1.58</ele>
219 <time>2008-11-23T21:24:45.000Z</time>
220 </trkpt>
221 <trkpt lon="115.9345028" lat="-31.931159">
222 <ele>1.1</ele>
223 <time>2008-11-23T21:24:53.000Z</time>
224 </trkpt>
225 <trkpt lon="115.9344266" lat="-31.9311481">
226 <ele>2.54</ele>
227 <time>2008-11-23T21:25:02.000Z</time>
228 </trkpt>
229 <trkpt lon="115.9343451" lat="-31.9310916">
230 <ele>3.02</ele>
231 <time>2008-11-23T21:25:12.000Z</time>
232 </trkpt>
233 <trkpt lon="115.9343227" lat="-31.9310507">
234 <ele>3.02</ele>
235 <time>2008-11-23T21:25:17.000Z</time>
236 </trkpt>
237 <trkpt lon="115.9342561" lat="-31.9310051">
238 <ele>2.54</ele>
239 <time>2008-11-23T21:25:27.000Z</time>
240 </trkpt>
241 <trkpt lon="115.9341599" lat="-31.9310102">
242 <ele>1.58</ele>
243 <time>2008-11-23T21:25:38.000Z</time>
244 </trkpt>
245 <trkpt lon="115.9340851" lat="-31.9310209">
246 <ele>0.62</ele>
247 <time>2008-11-23T21:25:43.000Z</time>
248 </trkpt>
249 <trkpt lon="115.933844" lat="-31.931058">
250 <ele>0.62</ele>
251 <time>2008-11-23T21:25:50.000Z</time>
252 </trkpt>
253 <trkpt lon="115.9334415" lat="-31.9310983">
254 <ele>0.14</ele>
255 <time>2008-11-23T21:25:58.000Z</time>
256 </trkpt>
257 <trkpt lon="115.9329379" lat="-31.9311362">
258 <ele>-0.82</ele>
259 <time>2008-11-23T21:26:08.000Z</time>
260 </trkpt>
261 <trkpt lon="115.9323623" lat="-31.931171">
262 <ele>-0.82</ele>
263 <time>2008-11-23T21:26:20.000Z</time>
264 </trkpt>
265 <trkpt lon="115.931937" lat="-31.9312162">
266 <ele>-1.3</ele>
267 <time>2008-11-23T21:26:29.000Z</time>
268 </trkpt>
269 <trkpt lon="115.9315165" lat="-31.9312547">
270 <ele>-2.27</ele>
271 <time>2008-11-23T21:26:38.000Z</time>
272 </trkpt>
273 <trkpt lon="115.9310652" lat="-31.931291">
274 <ele>-2.27</ele>
275 <time>2008-11-23T21:26:48.000Z</time>
276 </trkpt>
277 <trkpt lon="115.9305689" lat="-31.9313411">
278 <ele>-2.27</ele>
279 <time>2008-11-23T21:26:59.000Z</time>
280 </trkpt>
281 <trkpt lon="115.9301168" lat="-31.9313847">
282 <ele>-2.75</ele>
283 <time>2008-11-23T21:27:09.000Z</time>
284 </trkpt>
285 <trkpt lon="115.9296641" lat="-31.931438">
286 <ele>-3.23</ele>
287 <time>2008-11-23T21:27:19.000Z</time>
288 </trkpt>
289 <trkpt lon="115.9291259" lat="-31.93149">
290 <ele>-3.23</ele>
291 <time>2008-11-23T21:27:31.000Z</time>
292 </trkpt>
293 <trkpt lon="115.9285904" lat="-31.9315464">
294 <ele>-3.71</ele>
295 <time>2008-11-23T21:27:43.000Z</time>
296 </trkpt>
297 <trkpt lon="115.9281389" lat="-31.9315843">
298 <ele>-3.71</ele>
299 <time>2008-11-23T21:27:53.000Z</time>
300 </trkpt>
301 <trkpt lon="115.9277398" lat="-31.9316277">
302 <ele>-3.23</ele>
303 <time>2008-11-23T21:28:02.000Z</time>
304 </trkpt>
305 <trkpt lon="115.9273368" lat="-31.9316755">
306 <ele>-2.75</ele>
307 <time>2008-11-23T21:28:11.000Z</time>
308 </trkpt>
309 <trkpt lon="115.9268461" lat="-31.931732">
310 <ele>-3.23</ele>
311 <time>2008-11-23T21:28:22.000Z</time>
312 </trkpt>
313 <trkpt lon="115.9263613" lat="-31.9317842">
314 <ele>-3.23</ele>
315 <time>2008-11-23T21:28:33.000Z</time>
316 </trkpt>
317 <trkpt lon="115.9259277" lat="-31.9318209">
318 <ele>-2.75</ele>
319 <time>2008-11-23T21:28:43.000Z</time>
320 </trkpt>
321 <trkpt lon="115.9254369" lat="-31.9318573">
322 <ele>-3.23</ele>
323 <time>2008-11-23T21:28:54.000Z</time>
324 </trkpt>
325 <trkpt lon="115.9249954" lat="-31.9318898">
326 <ele>-2.75</ele>
327 <time>2008-11-23T21:29:04.000Z</time>
328 </trkpt>
329 <trkpt lon="115.9245535" lat="-31.9319215">
330 <ele>-2.75</ele>
331 <time>2008-11-23T21:29:14.000Z</time>
332 </trkpt>
333 <trkpt lon="115.9241544" lat="-31.9319561">
334 <ele>-2.75</ele>
335 <time>2008-11-23T21:29:23.000Z</time>
336 </trkpt>
337 <trkpt lon="115.9237142" lat="-31.9319826">
338 <ele>-2.75</ele>
339 <time>2008-11-23T21:29:33.000Z</time>
340 </trkpt>
341 <trkpt lon="115.9233256" lat="-31.9319967">
342 <ele>-2.27</ele>
343 <time>2008-11-23T21:29:42.000Z</time>
344 </trkpt>
345 <trkpt lon="115.9228823" lat="-31.9320134">
346 <ele>-2.75</ele>
347 <time>2008-11-23T21:29:52.000Z</time>
348 </trkpt>
349 <trkpt lon="115.9225202" lat="-31.9320267">
350 <ele>-3.23</ele>
351 <time>2008-11-23T21:30:00.000Z</time>
352 </trkpt>
353 <trkpt lon="115.9220826" lat="-31.9320435">
354 <ele>-2.75</ele>
355 <time>2008-11-23T21:30:10.000Z</time>
356 </trkpt>
357 <trkpt lon="115.9216865" lat="-31.9320564">
358 <ele>-2.27</ele>
359 <time>2008-11-23T21:30:19.000Z</time>
360 </trkpt>
361 <trkpt lon="115.9212894" lat="-31.9320789">
362 <ele>-2.27</ele>
363 <time>2008-11-23T21:30:28.000Z</time>
364 </trkpt>
365 <trkpt lon="115.9208957" lat="-31.9321131">
366 <ele>-2.27</ele>
367 <time>2008-11-23T21:30:37.000Z</time>
368 </trkpt>
369 <trkpt lon="115.9204219" lat="-31.9321597">
370 <ele>-2.27</ele>
371 <time>2008-11-23T21:30:48.000Z</time>
372 </trkpt>
373 <trkpt lon="115.9200373" lat="-31.9321881">
374 <ele>-2.27</ele>
375 <time>2008-11-23T21:30:57.000Z</time>
376 </trkpt>
377 <trkpt lon="115.9195573" lat="-31.9322286">
378 <ele>-2.27</ele>
379 <time>2008-11-23T21:31:08.000Z</time>
380 </trkpt>
381 <trkpt lon="115.9190469" lat="-31.9322821">
382 <ele>-2.27</ele>
383 <time>2008-11-23T21:31:20.000Z</time>
384 </trkpt>
385 <trkpt lon="115.9186323" lat="-31.9323225">
386 <ele>-1.79</ele>
387 <time>2008-11-23T21:31:30.000Z</time>
388 </trkpt>
389 <trkpt lon="115.9182612" lat="-31.9323535">
390 <ele>-1.79</ele>
391 <time>2008-11-23T21:31:39.000Z</time>
392 </trkpt>
393 <trkpt lon="115.917983" lat="-31.9323877">
394 <ele>-1.79</ele>
395 <time>2008-11-23T21:31:47.000Z</time>
396 </trkpt>
397 <trkpt lon="115.9178218" lat="-31.9324074">
398 <ele>-0.82</ele>
399 <time>2008-11-23T21:31:56.000Z</time>
400 </trkpt>
401 <trkpt lon="115.9176863" lat="-31.9324264">
402 <ele>0.14</ele>
403 <time>2008-11-23T21:32:11.000Z</time>
404 </trkpt>
405 <trkpt lon="115.9176096" lat="-31.9324382">
406 <ele>1.58</ele>
407 <time>2008-11-23T21:32:23.000Z</time>
408 </trkpt>
409 <trkpt lon="115.9175266" lat="-31.9324646">
410 <ele>3.02</ele>
411 <time>2008-11-23T21:32:41.000Z</time>
412 </trkpt>
413 <trkpt lon="115.9174793" lat="-31.9324985">
414 <ele>2.06</ele>
415 <time>2008-11-23T21:32:50.000Z</time>
416 </trkpt>
417 <trkpt lon="115.9174528" lat="-31.9325348">
418 <ele>1.58</ele>
419 <time>2008-11-23T21:33:00.000Z</time>
420 </trkpt>
421 <trkpt lon="115.9174457" lat="-31.9325597">
422 <ele>4.46</ele>
423 <time>2008-11-23T21:33:15.000Z</time>
424 </trkpt>
425 <trkpt lon="115.9174259" lat="-31.9325622">
426 <ele>7.83</ele>
427 <time>2008-11-23T21:33:29.000Z</time>
428 </trkpt>
429 <trkpt lon="115.9173899" lat="-31.9325611">
430 <ele>10.23</ele>
431 <time>2008-11-23T21:33:41.000Z</time>
432 </trkpt>
433 <trkpt lon="115.9173743" lat="-31.932566">
434 <ele>11.19</ele>
435 <time>2008-11-23T21:33:59.000Z</time>
436 </trkpt>
437 <trkpt lon="115.9174012" lat="-31.9325757">
438 <ele>5.42</ele>
439 <time>2008-11-23T21:34:30.000Z</time>
440 </trkpt>
441 <trkpt lon="115.9174364" lat="-31.9325684">
442 <ele>4.46</ele>
443 <time>2008-11-23T21:34:42.000Z</time>
444 </trkpt>
445 <trkpt lon="115.9175297" lat="-31.9325468">
446 <ele>3.98</ele>
447 <time>2008-11-23T21:34:52.000Z</time>
448 </trkpt>
449 <trkpt lon="115.9175889" lat="-31.9325337">
450 <ele>3.98</ele>
451 <time>2008-11-23T21:34:56.000Z</time>
452 </trkpt>
453 <trkpt lon="115.9177824" lat="-31.9324912">
454 <ele>3.5</ele>
455 <time>2008-11-23T21:35:06.000Z</time>
456 </trkpt>
457 <trkpt lon="115.9179099" lat="-31.9324594">
458 <ele>3.5</ele>
459 <time>2008-11-23T21:35:17.000Z</time>
460 </trkpt>
461 <trkpt lon="115.9179558" lat="-31.9324468">
462 <ele>4.46</ele>
463 <time>2008-11-23T21:35:29.000Z</time>
464 </trkpt>
465 <trkpt lon="115.9179275" lat="-31.9324478">
466 <ele>4.94</ele>
467 <time>2008-11-23T21:35:42.000Z</time>
468 </trkpt>
469 <trkpt lon="115.9179229" lat="-31.9324512">
470 <ele>4.94</ele>
471 <time>2008-11-23T21:35:54.000Z</time>
472 </trkpt>
473 <trkpt lon="115.9180413" lat="-31.9324446">
474 <ele>3.98</ele>
475 <time>2008-11-23T21:35:58.000Z</time>
476 </trkpt>
477 <trkpt lon="115.9184282" lat="-31.9324282">
478 <ele>2.54</ele>
479 <time>2008-11-23T21:36:06.000Z</time>
480 </trkpt>
481 <trkpt lon="115.9189666" lat="-31.9324063">
482 <ele>0.14</ele>
483 <time>2008-11-23T21:36:17.000Z</time>
484 </trkpt>
485 <trkpt lon="115.9194349" lat="-31.9323778">
486 <ele>-1.3</ele>
487 <time>2008-11-23T21:36:27.000Z</time>
488 </trkpt>
489 <trkpt lon="115.9198463" lat="-31.9323509">
490 <ele>-3.71</ele>
491 <time>2008-11-23T21:36:36.000Z</time>
492 </trkpt>
493 <trkpt lon="115.9202892" lat="-31.9323141">
494 <ele>-5.63</ele>
495 <time>2008-11-23T21:36:46.000Z</time>
496 </trkpt>
497 <trkpt lon="115.9206801" lat="-31.9322864">
498 <ele>-8.03</ele>
499 <time>2008-11-23T21:36:55.000Z</time>
500 </trkpt>
501 <trkpt lon="115.9211124" lat="-31.9322579">
502 <ele>-9.48</ele>
503 <time>2008-11-23T21:37:05.000Z</time>
504 </trkpt>
505 <trkpt lon="115.9215397" lat="-31.9322261">
506 <ele>-10.92</ele>
507 <time>2008-11-23T21:37:15.000Z</time>
508 </trkpt>
509 <trkpt lon="115.9220378" lat="-31.9321861">
510 <ele>-11.88</ele>
511 <time>2008-11-23T21:37:27.000Z</time>
512 </trkpt>
513 <trkpt lon="115.9224444" lat="-31.9321426">
514 <ele>-11.4</ele>
515 <time>2008-11-23T21:37:37.000Z</time>
516 </trkpt>
517 <trkpt lon="115.9228876" lat="-31.9321011">
518 <ele>-10.92</ele>
519 <time>2008-11-23T21:37:48.000Z</time>
520 </trkpt>
521 <trkpt lon="115.9233846" lat="-31.9320711">
522 <ele>-13.32</ele>
523 <time>2008-11-23T21:38:00.000Z</time>
524 </trkpt>
525 <trkpt lon="115.9238691" lat="-31.9320332">
526 <ele>-14.28</ele>
527 <time>2008-11-23T21:38:12.000Z</time>
528 </trkpt>
529 <trkpt lon="115.9243471" lat="-31.931996">
530 <ele>-15.24</ele>
531 <time>2008-11-23T21:38:24.000Z</time>
532 </trkpt>
533 <trkpt lon="115.9247471" lat="-31.9319634">
534 <ele>-13.8</ele>
535 <time>2008-11-23T21:38:34.000Z</time>
536 </trkpt>
537 <trkpt lon="115.9251925" lat="-31.9319489">
538 <ele>-13.8</ele>
539 <time>2008-11-23T21:38:45.000Z</time>
540 </trkpt>
541 <trkpt lon="115.9256724" lat="-31.9319274">
542 <ele>-13.8</ele>
543 <time>2008-11-23T21:38:57.000Z</time>
544 </trkpt>
545 <trkpt lon="115.9260329" lat="-31.9319043">
546 <ele>-13.32</ele>
547 <time>2008-11-23T21:39:06.000Z</time>
548 </trkpt>
549 <trkpt lon="115.9264705" lat="-31.9318801">
550 <ele>-14.76</ele>
551 <time>2008-11-23T21:39:17.000Z</time>
552 </trkpt>
553 <trkpt lon="115.9269031" lat="-31.9318463">
554 <ele>-13.32</ele>
555 <time>2008-11-23T21:39:28.000Z</time>
556 </trkpt>
557 <trkpt lon="115.9273389" lat="-31.9318236">
558 <ele>-11.88</ele>
559 <time>2008-11-23T21:39:39.000Z</time>
560 </trkpt>
561 <trkpt lon="115.9277745" lat="-31.9317991">
562 <ele>-11.88</ele>
563 <time>2008-11-23T21:39:50.000Z</time>
564 </trkpt>
565 <trkpt lon="115.9281254" lat="-31.9317732">
566 <ele>-12.36</ele>
567 <time>2008-11-23T21:39:59.000Z</time>
568 </trkpt>
569 <trkpt lon="115.9284626" lat="-31.9317438">
570 <ele>-12.36</ele>
571 <time>2008-11-23T21:40:08.000Z</time>
572 </trkpt>
573 <trkpt lon="115.9286555" lat="-31.9317228">
574 <ele>-10.92</ele>
575 <time>2008-11-23T21:40:15.000Z</time>
576 </trkpt>
577 <trkpt lon="115.9288095" lat="-31.9316816">
578 <ele>-3.71</ele>
579 <time>2008-11-23T21:40:26.000Z</time>
580 </trkpt>
581 <trkpt lon="115.9288695" lat="-31.9316646">
582 <ele>-1.79</ele>
583 <time>2008-11-23T21:40:38.000Z</time>
584 </trkpt>
585 <trkpt lon="115.9289228" lat="-31.9316561">
586 <ele>-1.3</ele>
587 <time>2008-11-23T21:40:47.000Z</time>
588 </trkpt>
589 <trkpt lon="115.928957" lat="-31.9316721">
590 <ele>-0.82</ele>
591 <time>2008-11-23T21:40:58.000Z</time>
592 </trkpt>
593 <trkpt lon="115.9289483" lat="-31.9316913">
594 <ele>1.58</ele>
595 <time>2008-11-23T21:41:13.000Z</time>
596 </trkpt>
597 <trkpt lon="115.9289284" lat="-31.9316998">
598 <ele>2.06</ele>
599 <time>2008-11-23T21:41:23.000Z</time>
600 </trkpt>
601 <trkpt lon="115.9288841" lat="-31.9317215">
602 <ele>1.1</ele>
603 <time>2008-11-23T21:41:37.000Z</time>
604 </trkpt>
605 <trkpt lon="115.9288348" lat="-31.9317309">
606 <ele>1.58</ele>
607 <time>2008-11-23T21:41:49.000Z</time>
608 </trkpt>
609 <trkpt lon="115.9288084" lat="-31.9317339">
610 <ele>1.58</ele>
611 <time>2008-11-23T21:42:04.000Z</time>
612 </trkpt>
613 <trkpt lon="115.9288043" lat="-31.9317214">
614 <ele>3.5</ele>
615 <time>2008-11-23T21:42:19.000Z</time>
616 </trkpt>
617 <trkpt lon="115.9287441" lat="-31.9316954">
618 <ele>4.94</ele>
619 <time>2008-11-23T21:42:35.000Z</time>
620 </trkpt>
621 <trkpt lon="115.9286621" lat="-31.9316992">
622 <ele>4.94</ele>
623 <time>2008-11-23T21:42:53.000Z</time>
624 </trkpt>
625 <trkpt lon="115.9285794" lat="-31.9317069">
626 <ele>4.46</ele>
627 <time>2008-11-23T21:43:11.000Z</time>
628 </trkpt>
629 <trkpt lon="115.9284756" lat="-31.9317115">
630 <ele>4.46</ele>
631 <time>2008-11-23T21:43:18.000Z</time>
632 </trkpt>
633 <trkpt lon="115.9284473" lat="-31.9317131">
634 <ele>4.46</ele>
635 <time>2008-11-23T21:43:19.000Z</time>
636 </trkpt>
637 <trkpt lon="115.9281208" lat="-31.9317329">
638 <ele>3.98</ele>
639 <time>2008-11-23T21:43:26.000Z</time>
640 </trkpt>
641 <trkpt lon="115.9275589" lat="-31.9317562">
642 <ele>3.98</ele>
643 <time>2008-11-23T21:43:37.000Z</time>
644 </trkpt>
645 <trkpt lon="115.9269737" lat="-31.9317736">
646 <ele>3.02</ele>
647 <time>2008-11-23T21:43:49.000Z</time>
648 </trkpt>
649 <trkpt lon="115.9264491" lat="-31.9317898">
650 <ele>2.54</ele>
651 <time>2008-11-23T21:44:00.000Z</time>
652 </trkpt>
653 <trkpt lon="115.9259805" lat="-31.9318059">
654 <ele>2.06</ele>
655 <time>2008-11-23T21:44:10.000Z</time>
656 </trkpt>
657 <trkpt lon="115.9255165" lat="-31.9318272">
658 <ele>2.06</ele>
659 <time>2008-11-23T21:44:20.000Z</time>
660 </trkpt>
661 <trkpt lon="115.9250165" lat="-31.9318441">
662 <ele>2.06</ele>
663 <time>2008-11-23T21:44:31.000Z</time>
664 </trkpt>
665 <trkpt lon="115.9246086" lat="-31.9318545">
666 <ele>2.06</ele>
667 <time>2008-11-23T21:44:40.000Z</time>
668 </trkpt>
669 <trkpt lon="115.9241079" lat="-31.9318733">
670 <ele>2.06</ele>
671 <time>2008-11-23T21:44:51.000Z</time>
672 </trkpt>
673 <trkpt lon="115.9235614" lat="-31.9318922">
674 <ele>1.58</ele>
675 <time>2008-11-23T21:45:03.000Z</time>
676 </trkpt>
677 <trkpt lon="115.9230991" lat="-31.9318962">
678 <ele>1.58</ele>
679 <time>2008-11-23T21:45:13.000Z</time>
680 </trkpt>
681 <trkpt lon="115.9226916" lat="-31.9318912">
682 <ele>1.1</ele>
683 <time>2008-11-23T21:45:22.000Z</time>
684 </trkpt>
685 <trkpt lon="115.9220996" lat="-31.9318958">
686 <ele>1.1</ele>
687 <time>2008-11-23T21:45:35.000Z</time>
688 </trkpt>
689 <trkpt lon="115.9217433" lat="-31.9319057">
690 <ele>1.58</ele>
691 <time>2008-11-23T21:45:43.000Z</time>
692 </trkpt>
693 <trkpt lon="115.9212818" lat="-31.9319272">
694 <ele>1.58</ele>
695 <time>2008-11-23T21:45:53.000Z</time>
696 </trkpt>
697 <trkpt lon="115.9208325" lat="-31.9319473">
698 <ele>1.58</ele>
699 <time>2008-11-23T21:46:03.000Z</time>
700 </trkpt>
701 <trkpt lon="115.9203244" lat="-31.9319829">
702 <ele>1.1</ele>
703 <time>2008-11-23T21:46:14.000Z</time>
704 </trkpt>
705 <trkpt lon="115.919926" lat="-31.9320059">
706 <ele>1.1</ele>
707 <time>2008-11-23T21:46:23.000Z</time>
708 </trkpt>
709 <trkpt lon="115.9194912" lat="-31.9320386">
710 <ele>1.58</ele>
711 <time>2008-11-23T21:46:33.000Z</time>
712 </trkpt>
713 <trkpt lon="115.9190095" lat="-31.932078">
714 <ele>1.58</ele>
715 <time>2008-11-23T21:46:44.000Z</time>
716 </trkpt>
717 <trkpt lon="115.918573" lat="-31.9321241">
718 <ele>1.58</ele>
719 <time>2008-11-23T21:46:54.000Z</time>
720 </trkpt>
721 <trkpt lon="115.9181549" lat="-31.9321811">
722 <ele>1.1</ele>
723 <time>2008-11-23T21:47:04.000Z</time>
724 </trkpt>
725 <trkpt lon="115.9179327" lat="-31.9322101">
726 <ele>1.58</ele>
727 <time>2008-11-23T21:47:11.000Z</time>
728 </trkpt>
729 <trkpt lon="115.9177845" lat="-31.9322313">
730 <ele>2.06</ele>
731 <time>2008-11-23T21:47:20.000Z</time>
732 </trkpt>
733 <trkpt lon="115.9177046" lat="-31.9322434">
734 <ele>2.54</ele>
735 <time>2008-11-23T21:47:30.000Z</time>
736 </trkpt>
737 <trkpt lon="115.9176222" lat="-31.9322785">
738 <ele>3.02</ele>
739 <time>2008-11-23T21:47:42.000Z</time>
740 </trkpt>
741 <trkpt lon="115.9175862" lat="-31.9323006">
742 <ele>3.02</ele>
743 <time>2008-11-23T21:47:54.000Z</time>
744 </trkpt>
745 <trkpt lon="115.9175547" lat="-31.9323202">
746 <ele>3.5</ele>
747 <time>2008-11-23T21:48:08.000Z</time>
748 </trkpt>
749 <trkpt lon="115.9175349" lat="-31.9323406">
750 <ele>3.98</ele>
751 <time>2008-11-23T21:48:19.000Z</time>
752 </trkpt>
753 <trkpt lon="115.9175049" lat="-31.9323571">
754 <ele>5.91</ele>
755 <time>2008-11-23T21:48:39.000Z</time>
756 </trkpt>
757 <trkpt lon="115.9174991" lat="-31.9323768">
758 <ele>5.91</ele>
759 <time>2008-11-23T21:48:55.000Z</time>
760 </trkpt>
761 <trkpt lon="115.917507" lat="-31.932396">
762 <ele>5.91</ele>
763 <time>2008-11-23T21:49:11.000Z</time>
764 </trkpt>
765 <trkpt lon="115.9175204" lat="-31.9324038">
766 <ele>5.42</ele>
767 <time>2008-11-23T21:49:25.000Z</time>
768 </trkpt>
769 <trkpt lon="115.91755" lat="-31.9324071">
770 <ele>3.98</ele>
771 <time>2008-11-23T21:49:44.000Z</time>
772 </trkpt>
773 <trkpt lon="115.9176141" lat="-31.9323985">
774 <ele>3.5</ele>
775 <time>2008-11-23T21:49:57.000Z</time>
776 </trkpt>
777 <trkpt lon="115.9176659" lat="-31.9324027">
778 <ele>3.5</ele>
779 <time>2008-11-23T21:50:11.000Z</time>
780 </trkpt>
781 <trkpt lon="115.9177093" lat="-31.9324021">
782 <ele>3.02</ele>
783 <time>2008-11-23T21:50:26.000Z</time>
784 </trkpt>
785 <trkpt lon="115.9177819" lat="-31.9323943">
786 <ele>2.54</ele>
787 <time>2008-11-23T21:50:34.000Z</time>
788 </trkpt>
789 <trkpt lon="115.9178161" lat="-31.9323902">
790 <ele>2.54</ele>
791 <time>2008-11-23T21:50:36.000Z</time>
792 </trkpt>
793 <trkpt lon="115.9180565" lat="-31.9323788">
794 <ele>1.1</ele>
795 <time>2008-11-23T21:50:45.000Z</time>
796 </trkpt>
797 <trkpt lon="115.9184392" lat="-31.9323675">
798 <ele>-0.82</ele>
799 <time>2008-11-23T21:50:53.000Z</time>
800 </trkpt>
801 <trkpt lon="115.919004" lat="-31.9323395">
802 <ele>-2.27</ele>
803 <time>2008-11-23T21:51:05.000Z</time>
804 </trkpt>
805 <trkpt lon="115.9194637" lat="-31.9323168">
806 <ele>-2.75</ele>
807 <time>2008-11-23T21:51:15.000Z</time>
808 </trkpt>
809 <trkpt lon="115.9200395" lat="-31.9322773">
810 <ele>-3.23</ele>
811 <time>2008-11-23T21:51:28.000Z</time>
812 </trkpt>
813 <trkpt lon="115.9206507" lat="-31.9322315">
814 <ele>-3.23</ele>
815 <time>2008-11-23T21:51:42.000Z</time>
816 </trkpt>
817 <trkpt lon="115.9212941" lat="-31.9321633">
818 <ele>-3.23</ele>
819 <time>2008-11-23T21:51:57.000Z</time>
820 </trkpt>
821 <trkpt lon="115.9217568" lat="-31.9321165">
822 <ele>-3.23</ele>
823 <time>2008-11-23T21:52:08.000Z</time>
824 </trkpt>
825 <trkpt lon="115.9222636" lat="-31.9320702">
826 <ele>-4.19</ele>
827 <time>2008-11-23T21:52:20.000Z</time>
828 </trkpt>
829 <trkpt lon="115.9228217" lat="-31.9320245">
830 <ele>-5.15</ele>
831 <time>2008-11-23T21:52:33.000Z</time>
832 </trkpt>
833 <trkpt lon="115.9233185" lat="-31.9319835">
834 <ele>-5.15</ele>
835 <time>2008-11-23T21:52:45.000Z</time>
836 </trkpt>
837 <trkpt lon="115.9235108" lat="-31.9319612">
838 <ele>-5.15</ele>
839 <time>2008-11-23T21:52:51.000Z</time>
840 </trkpt>
841 <trkpt lon="115.9236463" lat="-31.9319291">
842 <ele>-3.71</ele>
843 <time>2008-11-23T21:53:00.000Z</time>
844 </trkpt>
845 <trkpt lon="115.9237468" lat="-31.9319099">
846 <ele>-3.23</ele>
847 <time>2008-11-23T21:53:11.000Z</time>
848 </trkpt>
849 <trkpt lon="115.9238401" lat="-31.9318981">
850 <ele>-2.27</ele>
851 <time>2008-11-23T21:53:22.000Z</time>
852 </trkpt>
853 <trkpt lon="115.9238872" lat="-31.9318959">
854 <ele>0.14</ele>
855 <time>2008-11-23T21:53:32.000Z</time>
856 </trkpt>
857 <trkpt lon="115.9238841" lat="-31.9319109">
858 <ele>2.06</ele>
859 <time>2008-11-23T21:53:42.000Z</time>
860 </trkpt>
861 <trkpt lon="115.923876" lat="-31.9319366">
862 <ele>3.5</ele>
863 <time>2008-11-23T21:53:55.000Z</time>
864 </trkpt>
865 <trkpt lon="115.9238354" lat="-31.93193">
866 <ele>3.98</ele>
867 <time>2008-11-23T21:54:09.000Z</time>
868 </trkpt>
869 <trkpt lon="115.9238058" lat="-31.9319127">
870 <ele>3.02</ele>
871 <time>2008-11-23T21:54:22.000Z</time>
872 </trkpt>
873 <trkpt lon="115.9237826" lat="-31.9319041">
874 <ele>3.5</ele>
875 <time>2008-11-23T21:54:37.000Z</time>
876 </trkpt>
877 <trkpt lon="115.9237489" lat="-31.9318982">
878 <ele>3.5</ele>
879 <time>2008-11-23T21:54:48.000Z</time>
880 </trkpt>
881 <trkpt lon="115.9236732" lat="-31.9318961">
882 <ele>3.02</ele>
883 <time>2008-11-23T21:55:03.000Z</time>
884 </trkpt>
885 <trkpt lon="115.9236102" lat="-31.9318858">
886 <ele>2.54</ele>
887 <time>2008-11-23T21:55:20.000Z</time>
888 </trkpt>
889 <trkpt lon="115.9235516" lat="-31.9318817">
890 <ele>2.54</ele>
891 <time>2008-11-23T21:55:33.000Z</time>
892 </trkpt>
893 <trkpt lon="115.9234636" lat="-31.9318896">
894 <ele>3.02</ele>
895 <time>2008-11-23T21:55:46.000Z</time>
896 </trkpt>
897 <trkpt lon="115.9234156" lat="-31.9318951">
898 <ele>3.5</ele>
899 <time>2008-11-23T21:55:57.000Z</time>
900 </trkpt>
901 <trkpt lon="115.9233329" lat="-31.9319015">
902 <ele>3.98</ele>
903 <time>2008-11-23T21:56:13.000Z</time>
904 </trkpt>
905 <trkpt lon="115.923306" lat="-31.9319001">
906 <ele>3.98</ele>
907 <time>2008-11-23T21:56:24.000Z</time>
908 </trkpt>
909 <trkpt lon="115.9232946" lat="-31.9319007">
910 <ele>3.98</ele>
911 <time>2008-11-23T21:56:26.000Z</time>
912 </trkpt>
913 <trkpt lon="115.9231357" lat="-31.9319124">
914 <ele>3.5</ele>
915 <time>2008-11-23T21:56:31.000Z</time>
916 </trkpt>
917 <trkpt lon="115.9227646" lat="-31.9319216">
918 <ele>3.5</ele>
919 <time>2008-11-23T21:56:38.000Z</time>
920 </trkpt>
921 <trkpt lon="115.9222805" lat="-31.9319317">
922 <ele>2.54</ele>
923 <time>2008-11-23T21:56:47.000Z</time>
924 </trkpt>
925 <trkpt lon="115.9217532" lat="-31.9319488">
926 <ele>2.06</ele>
927 <time>2008-11-23T21:56:57.000Z</time>
928 </trkpt>
929 <trkpt lon="115.9213428" lat="-31.9319727">
930 <ele>1.58</ele>
931 <time>2008-11-23T21:57:05.000Z</time>
932 </trkpt>
933 <trkpt lon="115.9209429" lat="-31.9319992">
934 <ele>1.58</ele>
935 <time>2008-11-23T21:57:13.000Z</time>
936 </trkpt>
937 <trkpt lon="115.9205906" lat="-31.9320286">
938 <ele>1.58</ele>
939 <time>2008-11-23T21:57:20.000Z</time>
940 </trkpt>
941 <trkpt lon="115.9202033" lat="-31.9320561">
942 <ele>1.1</ele>
943 <time>2008-11-23T21:57:28.000Z</time>
944 </trkpt>
945 <trkpt lon="115.9198635" lat="-31.9320825">
946 <ele>1.1</ele>
947 <time>2008-11-23T21:57:35.000Z</time>
948 </trkpt>
949 <trkpt lon="115.9194344" lat="-31.9321234">
950 <ele>1.1</ele>
951 <time>2008-11-23T21:57:44.000Z</time>
952 </trkpt>
953 <trkpt lon="115.9190201" lat="-31.932172">
954 <ele>1.58</ele>
955 <time>2008-11-23T21:57:53.000Z</time>
956 </trkpt>
957 <trkpt lon="115.9186145" lat="-31.9322232">
958 <ele>2.06</ele>
959 <time>2008-11-23T21:58:02.000Z</time>
960 </trkpt>
961 <trkpt lon="115.9182723" lat="-31.9322742">
962 <ele>2.06</ele>
963 <time>2008-11-23T21:58:10.000Z</time>
964 </trkpt>
965 <trkpt lon="115.9179711" lat="-31.9323249">
966 <ele>2.54</ele>
967 <time>2008-11-23T21:58:18.000Z</time>
968 </trkpt>
969 <trkpt lon="115.9178139" lat="-31.9323498">
970 <ele>3.02</ele>
971 <time>2008-11-23T21:58:25.000Z</time>
972 </trkpt>
973 <trkpt lon="115.9177008" lat="-31.9323662">
974 <ele>3.02</ele>
975 <time>2008-11-23T21:58:35.000Z</time>
976 </trkpt>
977 <trkpt lon="115.9176284" lat="-31.9323771">
978 <ele>3.02</ele>
979 <time>2008-11-23T21:58:43.000Z</time>
980 </trkpt>
981 <trkpt lon="115.9175303" lat="-31.9323965">
982 <ele>3.02</ele>
983 <time>2008-11-23T21:58:52.000Z</time>
984 </trkpt>
985 <trkpt lon="115.9174255" lat="-31.9324208">
986 <ele>3.02</ele>
987 <time>2008-11-23T21:59:02.000Z</time>
988 </trkpt>
989 <trkpt lon="115.9172826" lat="-31.9324567">
990 <ele>2.54</ele>
991 <time>2008-11-23T21:59:11.000Z</time>
992 </trkpt>
993 <trkpt lon="115.9171664" lat="-31.9324862">
994 <ele>3.02</ele>
995 <time>2008-11-23T21:59:20.000Z</time>
996 </trkpt>
997 <trkpt lon="115.917064" lat="-31.9325181">
998 <ele>3.98</ele>
999 <time>2008-11-23T21:59:28.000Z</time>
1000 </trkpt>
1001 <trkpt lon="115.9169475" lat="-31.9325566">
1002 <ele>3.98</ele>
1003 <time>2008-11-23T21:59:38.000Z</time>
1004 </trkpt>
1005 <trkpt lon="115.9168359" lat="-31.9325902">
1006 <ele>3.5</ele>
1007 <time>2008-11-23T21:59:48.000Z</time>
1008 </trkpt>
1009 <trkpt lon="115.916759" lat="-31.9326143">
1010 <ele>3.5</ele>
1011 <time>2008-11-23T21:59:59.000Z</time>
1012 </trkpt>
1013 <trkpt lon="115.9166567" lat="-31.932663">
1014 <ele>3.02</ele>
1015 <time>2008-11-23T22:00:06.000Z</time>
1016 </trkpt>
1017 <trkpt lon="115.9165358" lat="-31.9327144">
1018 <ele>2.54</ele>
1019 <time>2008-11-23T22:00:15.000Z</time>
1020 </trkpt>
1021 <trkpt lon="115.9164045" lat="-31.9327456">
1022 <ele>2.54</ele>
1023 <time>2008-11-23T22:00:22.000Z</time>
1024 </trkpt>
1025 <trkpt lon="115.9162641" lat="-31.9327871">
1026 <ele>3.98</ele>
1027 <time>2008-11-23T22:00:30.000Z</time>
1028 </trkpt>
1029 <trkpt lon="115.9161202" lat="-31.9328243">
1030 <ele>3.98</ele>
1031 <time>2008-11-23T22:00:39.000Z</time>
1032 </trkpt>
1033 <trkpt lon="115.9159958" lat="-31.9328621">
1034 <ele>3.98</ele>
1035 <time>2008-11-23T22:00:47.000Z</time>
1036 </trkpt>
1037 <trkpt lon="115.9157741" lat="-31.9329378">
1038 <ele>3.98</ele>
1039 <time>2008-11-23T22:01:01.000Z</time>
1040 </trkpt>
1041 <trkpt lon="115.9156379" lat="-31.9329835">
1042 <ele>3.5</ele>
1043 <time>2008-11-23T22:01:11.000Z</time>
1044 </trkpt>
1045 <trkpt lon="115.9155277" lat="-31.933021">
1046 <ele>3.02</ele>
1047 <time>2008-11-23T22:01:19.000Z</time>
1048 </trkpt>
1049 <trkpt lon="115.9153798" lat="-31.9330731">
1050 <ele>2.54</ele>
1051 <time>2008-11-23T22:01:28.000Z</time>
1052 </trkpt>
1053 <trkpt lon="115.9152215" lat="-31.933119">
1054 <ele>2.06</ele>
1055 <time>2008-11-23T22:01:38.000Z</time>
1056 </trkpt>
1057 <trkpt lon="115.9150737" lat="-31.9331578">
1058 <ele>1.58</ele>
1059 <time>2008-11-23T22:01:47.000Z</time>
1060 </trkpt>
1061 <trkpt lon="115.9149232" lat="-31.9331957">
1062 <ele>1.58</ele>
1063 <time>2008-11-23T22:01:55.000Z</time>
1064 </trkpt>
1065 <trkpt lon="115.9147818" lat="-31.933229">
1066 <ele>2.06</ele>
1067 <time>2008-11-23T22:02:03.000Z</time>
1068 </trkpt>
1069 <trkpt lon="115.9146283" lat="-31.9332518">
1070 <ele>2.06</ele>
1071 <time>2008-11-23T22:02:12.000Z</time>
1072 </trkpt>
1073 <trkpt lon="115.9144743" lat="-31.9332708">
1074 <ele>1.58</ele>
1075 <time>2008-11-23T22:02:22.000Z</time>
1076 </trkpt>
1077 <trkpt lon="115.914289" lat="-31.9332826">
1078 <ele>1.1</ele>
1079 <time>2008-11-23T22:02:32.000Z</time>
1080 </trkpt>
1081 <trkpt lon="115.9140902" lat="-31.9332723">
1082 <ele>1.1</ele>
1083 <time>2008-11-23T22:02:43.000Z</time>
1084 </trkpt>
1085 <trkpt lon="115.9139605" lat="-31.9332009">
1086 <ele>1.1</ele>
1087 <time>2008-11-23T22:02:51.000Z</time>
1088 </trkpt>
1089 <trkpt lon="115.9138625" lat="-31.9330828">
1090 <ele>1.1</ele>
1091 <time>2008-11-23T22:03:00.000Z</time>
1092 </trkpt>
1093 <trkpt lon="115.9138449" lat="-31.9329507">
1094 <ele>0.62</ele>
1095 <time>2008-11-23T22:03:08.000Z</time>
1096 </trkpt>
1097 <trkpt lon="115.9139446" lat="-31.9328228">
1098 <ele>1.1</ele>
1099 <time>2008-11-23T22:03:17.000Z</time>
1100 </trkpt>
1101 <trkpt lon="115.9141187" lat="-31.9327342">
1102 <ele>1.58</ele>
1103 <time>2008-11-23T22:03:26.000Z</time>
1104 </trkpt>
1105 <trkpt lon="115.9143212" lat="-31.9326576">
1106 <ele>1.1</ele>
1107 <time>2008-11-23T22:03:36.000Z</time>
1108 </trkpt>
1109 <trkpt lon="115.914516" lat="-31.9325773">
1110 <ele>0.62</ele>
1111 <time>2008-11-23T22:03:45.000Z</time>
1112 </trkpt>
1113 <trkpt lon="115.9147033" lat="-31.9324958">
1114 <ele>-0.34</ele>
1115 <time>2008-11-23T22:03:53.000Z</time>
1116 </trkpt>
1117 <trkpt lon="115.9148849" lat="-31.9324222">
1118 <ele>-0.34</ele>
1119 <time>2008-11-23T22:04:01.000Z</time>
1120 </trkpt>
1121 <trkpt lon="115.9151386" lat="-31.9323172">
1122 <ele>-0.82</ele>
1123 <time>2008-11-23T22:04:12.000Z</time>
1124 </trkpt>
1125 <trkpt lon="115.9153095" lat="-31.9322525">
1126 <ele>-0.82</ele>
1127 <time>2008-11-23T22:04:19.000Z</time>
1128 </trkpt>
1129 <trkpt lon="115.9155334" lat="-31.9321601">
1130 <ele>-0.82</ele>
1131 <time>2008-11-23T22:04:29.000Z</time>
1132 </trkpt>
1133 <trkpt lon="115.9157022" lat="-31.9320881">
1134 <ele>-0.82</ele>
1135 <time>2008-11-23T22:04:36.000Z</time>
1136 </trkpt>
1137 <trkpt lon="115.9159465" lat="-31.9319873">
1138 <ele>-1.3</ele>
1139 <time>2008-11-23T22:04:46.000Z</time>
1140 </trkpt>
1141 <trkpt lon="115.9160817" lat="-31.9319484">
1142 <ele>-1.3</ele>
1143 <time>2008-11-23T22:04:53.000Z</time>
1144 </trkpt>
1145 <trkpt lon="115.9161656" lat="-31.9319164">
1146 <ele>1.1</ele>
1147 <time>2008-11-23T22:04:58.000Z</time>
1148 </trkpt>
1149 <trkpt lon="115.9162433" lat="-31.9318892">
1150 <ele>-1.3</ele>
1151 <time>2008-11-23T22:05:02.000Z</time>
1152 </trkpt>
1153 <trkpt lon="115.9163454" lat="-31.9318391">
1154 <ele>-0.82</ele>
1155 <time>2008-11-23T22:05:06.000Z</time>
1156 </trkpt>
1157 <trkpt lon="115.9164662" lat="-31.931771">
1158 <ele>-1.3</ele>
1159 <time>2008-11-23T22:05:11.000Z</time>
1160 </trkpt>
1161 <trkpt lon="115.9166532" lat="-31.9316686">
1162 <ele>-0.34</ele>
1163 <time>2008-11-23T22:05:19.000Z</time>
1164 </trkpt>
1165 <trkpt lon="115.9168418" lat="-31.9315537">
1166 <ele>0.14</ele>
1167 <time>2008-11-23T22:05:28.000Z</time>
1168 </trkpt>
1169 <trkpt lon="115.9169831" lat="-31.9314515">
1170 <ele>1.1</ele>
1171 <time>2008-11-23T22:05:38.000Z</time>
1172 </trkpt>
1173 <trkpt lon="115.9170615" lat="-31.9313608">
1174 <ele>1.1</ele>
1175 <time>2008-11-23T22:05:49.000Z</time>
1176 </trkpt>
1177 <trkpt lon="115.9170747" lat="-31.9313442">
1178 <ele>1.58</ele>
1179 <time>2008-11-23T22:06:01.000Z</time>
1180 </trkpt>
1181 <trkpt lon="115.917078" lat="-31.9313386">
1182 <ele>2.54</ele>
1183 <time>2008-11-23T22:06:10.000Z</time>
1184 </trkpt>
1185 <trkpt lon="115.9170882" lat="-31.9313309">
1186 <ele>1.1</ele>
1187 <time>2008-11-23T22:06:19.000Z</time>
1188 </trkpt>
1189 </trkseg>
1190 </trk>
1191 </gpx>

Managed by UCC Webmasters ViewVC Help
Powered by ViewVC 1.1.26